Time;durP1;ratioP1;P1;durP2;ratioP2;P2;SDS_P1;SDS_P2;PMS_P1;PMS_P2;Temp;Humidity;BMP_temperature;BMP_pressure;BME280_temperature;BME280_humidity;BME280_pressure;Samples;Min_cycle;Max_cycle;Signal;HPM_P1;HPM_P2
2023/10/06 00:00:40;;;;;;;10.82;3.92;;;;;;;13.85;93.06;102435.72;5094073;28;20490;-61
2023/10/06 00:03:10;;;;;;;13.57;4.20;;;;;;;13.81;93.17;102429.44;5093818;28;20107;-62
2023/10/06 00:05:39;;;;;;;11.32;4.45;;;;;;;13.80;93.32;102432.06;5094051;28;20048;-61
2023/10/06 00:08:20;;;;;;;11.57;4.18;;;;;;;13.83;93.47;102435.66;5093914;28;20020;-64
2023/10/06 00:10:54;;;;;;;12.52;4.20;;;;;;;13.83;92.95;102419.72;5093736;28;20036;-62
2023/10/06 00:13:31;;;;;;;13.73;3.90;;;;;;;13.84;93.03;102429.50;5093394;28;20032;-62
2023/10/06 00:15:58;;;;;;;13.75;4.40;;;;;;;13.84;93.08;102436.59;5093194;28;20038;-62
2023/10/06 00:18:26;;;;;;;12.20;4.25;;;;;;;13.84;93.07;102429.50;5093676;28;20032;-61
2023/10/06 00:20:56;;;;;;;10.25;4.03;;;;;;;13.80;93.13;102435.63;5093410;28;20024;-61
2023/10/06 00:23:22;;;;;;;9.02;4.20;;;;;;;13.77;93.43;102431.13;5093364;28;20424;-63
2023/10/06 00:25:54;;;;;;;8.40;4.15;;;;;;;13.72;93.59;102430.13;5093490;28;20470;-62
2023/10/06 00:28:21;;;;;;;;;;;;;;;13.81;92.20;102429.44;5094062;28;20428;-62
2023/10/06 00:30:48;;;;;;;9.88;3.88;;;;;;;13.70;93.30;102423.88;5093618;28;19912;-62
2023/10/06 00:33:15;;;;;;;11.20;4.22;;;;;;;13.68;93.47;102425.59;5093456;28;20031;-62
2023/10/06 00:35:41;;;;;;;13.27;4.50;;;;;;;13.66;93.76;102424.69;5093500;28;20052;-62
2023/10/06 00:38:16;;;;;;;11.95;4.28;;;;;;;13.67;94.15;102429.13;5093415;28;20039;-62
2023/10/06 00:40:51;;;;;;;11.85;4.63;;;;;;;13.66;94.17;102432.66;5092983;28;20032;-63
2023/10/06 00:43:28;;;;;;;13.93;4.43;;;;;;;13.67;94.15;102418.50;5093303;28;20077;-62
2023/10/06 00:45:53;;;;;;;10.98;4.43;;;;;;;13.66;94.42;102418.44;5092811;28;20048;-62
2023/10/06 00:48:19;;;;;;;9.13;4.10;;;;;;;13.63;94.91;102427.25;5093001;28;20027;-63
2023/10/06 00:50:45;;;;;;;8.50;4.00;;;;;;;13.59;94.98;102424.50;5092834;28;20028;-62
2023/10/06 00:53:13;;;;;;;11.25;4.35;;;;;;;13.56;95.20;102419.09;5093219;28;20158;-62
2023/10/06 00:55:40;;;;;;;11.35;4.30;;;;;;;13.60;94.97;102426.28;5092958;28;20036;-62
2023/10/06 00:58:10;;;;;;;11.27;4.07;;;;;;;13.62;95.11;102420.16;5093054;28;20478;-62
2023/10/06 01:00:38;;;;;;;10.85;4.10;;;;;;;13.60;95.22;102423.63;5091885;28;20035;-61
2023/10/06 01:03:14;;;;;;;16.90;4.43;;;;;;;13.55;95.78;102418.22;5093219;28;20020;-62
2023/10/06 01:05:45;;;;;;;9.68;4.13;;;;;;;13.51;95.91;102403.94;5092796;28;20031;-62
2023/10/06 01:08:11;;;;;;;9.57;4.22;;;;;;;13.48;96.20;102398.56;5092939;28;20032;-63
2023/10/06 01:10:37;;;;;;;10.77;4.45;;;;;;;13.49;96.54;102404.78;5092071;28;20035;-62
2023/10/06 01:13:13;;;;;;;10.65;4.55;;;;;;;13.48;96.21;102401.22;5092943;28;20024;-62
2023/10/06 01:15:49;;;;;;;14.73;4.60;;;;;;;13.47;96.56;102403.84;5092777;28;20020;-63
2023/10/06 01:18:20;;;;;;;14.88;5.05;;;;;;;13.45;96.65;102392.31;5092971;28;20056;-62
2023/10/06 01:20:46;;;;;;;12.02;4.60;;;;;;;13.50;96.45;102385.34;5092918;28;20032;-62
2023/10/06 01:23:19;;;;;;;11.15;4.65;;;;;;;13.45;96.64;102395.84;5093089;28;20031;-61
2023/10/06 01:25:44;;;;;;;10.85;4.38;;;;;;;13.46;96.60;102391.44;5094428;28;20043;-62
2023/10/06 01:28:13;;;;;;;11.00;4.45;;;;;;;13.41;96.50;102393.09;5096660;28;20428;-61
2023/10/06 01:30:38;;;;;;;15.63;4.55;;;;;;;13.44;96.50;102398.44;5096859;28;20032;-62
2023/10/06 01:33:05;;;;;;;14.88;4.85;;;;;;;13.43;96.43;102386.94;5096682;28;20536;-62
2023/10/06 01:35:33;;;;;;;12.77;4.95;;;;;;;13.42;96.62;102386.91;5096856;28;20059;-63
2023/10/06 01:38:00;;;;;;;13.88;5.07;;;;;;;13.41;96.98;102385.13;5096845;28;20043;-61
2023/10/06 01:42:52;;;;;;;16.50;4.85;;;;;;;13.31;97.22;102386.63;5096668;28;20036;-63
2023/10/06 01:45:21;;;;;;;12.68;4.57;;;;;;;13.31;97.28;102381.31;5096313;28;20126;-62
2023/10/06 01:48:22;;;;;;;10.48;4.93;;;;;;;13.31;97.23;102377.78;5096125;28;20124;-63
2023/10/06 01:50:35;;;;;;;10.95;4.70;;;;;;;13.26;97.77;102375.91;5096362;28;20436;-62
2023/10/06 01:53:05;;;;;;;11.63;4.70;;;;;;;13.22;97.93;102371.38;5096289;28;20030;-63
2023/10/06 01:55:36;;;;;;;13.35;4.70;;;;;;;13.19;98.09;102365.06;5096563;28;20036;-62
2023/10/06 01:58:04;;;;;;;9.43;4.78;;;;;;;13.19;98.20;102371.31;5096516;28;20115;-62
2023/10/06 02:00:31;;;;;;;9.85;4.70;;;;;;;13.15;98.74;102365.88;5096131;28;20541;-63
2023/10/06 02:02:57;;;;;;;11.52;4.80;;;;;;;13.12;98.61;102369.34;5096361;28;20077;-63
2023/10/06 02:05:22;;;;;;;14.05;4.75;;;;;;;13.08;99.19;102361.28;5095963;28;20407;-61
2023/10/06 02:07:48;;;;;;;11.23;4.80;;;;;;;12.99;99.72;102360.19;5096036;28;20036;-62
2023/10/06 02:10:15;;;;;;;14.65;5.00;;;;;;;13.00;99.96;102366.38;5096028;28;20024;-62
2023/10/06 02:12:40;;;;;;;11.07;4.65;;;;;;;12.86;100.00;102339.50;5096201;28;20081;-62
2023/10/06 02:15:10;;;;;;;13.27;4.97;;;;;;;12.93;100.00;102370.66;5095892;28;20020;-62
2023/10/06 02:17:45;;;;;;;9.85;4.80;;;;;;;12.95;100.00;102373.34;5095610;28;20036;-63
2023/10/06 02:22:58;;;;;;;14.23;5.20;;;;;;;12.89;100.00;102383.78;5096179;28;20073;-63
2023/10/06 02:25:25;;;;;;;11.18;5.10;;;;;;;12.87;100.00;102373.13;5095968;28;20020;-62
2023/10/06 02:27:51;;;;;;;9.38;4.60;;;;;;;12.87;100.00;102372.22;5095806;28;20161;-62
2023/10/06 02:30:19;;;;;;;9.57;4.60;;;;;;;12.83;100.00;102368.59;5095571;28;20458;-62
2023/10/06 02:32:45;;;;;;;13.20;4.78;;;;;;;12.77;100.00;102369.34;5095600;28;20020;-62
2023/10/06 02:35:12;;;;;;;12.02;4.82;;;;;;;12.77;100.00;102372.00;5095446;28;20435;-61
2023/10/06 02:37:41;;;;;;;10.60;5.00;;;;;;;12.72;100.00;102371.00;5094226;28;20490;-61
2023/10/06 02:40:12;;;;;;;9.65;4.70;;;;;;;12.73;100.00;102371.88;5094122;28;20048;-61
2023/10/06 02:42:45;;;;;;;12.57;4.82;;;;;;;12.71;100.00;102362.97;5094307;28;20077;-62
2023/10/06 02:45:20;;;;;;;12.05;4.75;;;;;;;12.72;100.00;102364.78;5095164;28;20105;-62
2023/10/06 02:47:46;;;;;;;8.43;4.82;;;;;;;12.71;100.00;102373.56;5094992;28;20482;-62
2023/10/06 02:50:19;;;;;;;11.10;4.68;;;;;;;12.74;100.00;102368.38;5095193;28;20031;-61
2023/10/06 02:52:46;;;;;;;11.57;4.75;;;;;;;12.70;100.00;102363.84;5095408;28;20451;-63
2023/10/06 02:55:19;;;;;;;15.48;5.35;;;;;;;12.66;100.00;102362.84;5095325;28;20066;-61
2023/10/06 02:57:50;;;;;;;12.38;4.57;;;;;;;12.64;100.00;102361.94;5095083;28;20524;-61
2023/10/06 03:00:31;;;;;;;9.83;4.57;;;;;;;12.64;100.00;102355.72;5095307;28;20036;-62
2023/10/06 03:03:03;;;;;;;13.25;5.30;;;;;;;12.61;100.00;102350.34;5094956;28;20632;-62
2023/10/06 03:05:32;;;;;;;9.88;4.72;;;;;;;12.61;100.00;102347.69;5094865;28;20492;-63
2023/10/06 03:08:01;;;;;;;9.52;4.38;;;;;;;12.57;100.00;102344.06;5094753;28;20024;-61
2023/10/06 03:10:30;;;;;;;15.45;5.15;;;;;;;12.51;100.00;102344.78;5095007;28;20097;-63
2023/10/06 03:12:57;;;;;;;12.68;5.00;;;;;;;12.47;100.00;102342.03;5095014;28;20378;-62
2023/10/06 03:15:33;;;;;;;10.60;4.85;;;;;;;12.50;100.00;102343.00;5094785;28;20012;-61
2023/10/06 03:17:58;;;;;;;12.30;4.80;;;;;;;12.50;100.00;102348.31;5094809;28;20032;-62
2023/10/06 03:20:33;;;;;;;7.82;4.47;;;;;;;12.51;100.00;102354.50;5094389;28;20091;-61
2023/10/06 03:23:04;;;;;;;12.77;5.10;;;;;;;12.51;100.00;102363.34;5094859;28;20047;-62
2023/10/06 03:25:34;;;;;;;9.95;4.90;;;;;;;12.50;100.00;102355.34;5094445;28;20461;-60
2023/10/06 03:28:04;;;;;;;13.98;4.95;;;;;;;12.52;100.00;102356.28;5094338;28;20080;-62
2023/10/06 03:30:34;;;;;;;11.23;4.55;;;;;;;12.52;100.00;102356.28;5094702;28;20040;-61
2023/10/06 03:33:03;;;;;;;9.70;4.20;;;;;;;12.51;100.00;102351.84;5094390;28;20363;-61
2023/10/06 03:35:36;;;;;;;13.98;4.63;;;;;;;12.49;100.00;102357.09;5094420;28;20036;-63
2023/10/06 03:38:15;;;;;;;8.50;4.05;;;;;;;12.51;100.00;102362.47;5094572;28;20094;-63
2023/10/06 03:43:33;;;;;;;12.80;4.80;;;;;;;12.50;100.00;102347.38;5092965;28;20036;-61
2023/10/06 03:45:58;;;;;;;9.93;4.50;;;;;;;12.47;100.00;102344.66;5093814;28;20052;-62
2023/10/06 03:48:24;;;;;;;11.25;4.60;;;;;;;12.41;100.00;102342.72;5093854;28;20156;-61
2023/10/06 03:50:50;;;;;;;11.85;4.40;;;;;;;12.34;100.00;102343.44;5093851;28;20025;-63
2023/10/06 03:53:15;;;;;;;12.05;5.25;;;;;;;12.26;100.00;102332.63;5093969;28;20020;-62
2023/10/06 03:55:42;;;;;;;10.15;4.60;;;;;;;12.25;100.00;102332.59;5092963;28;20035;-61
2023/10/06 03:58:10;;;;;;;10.70;5.20;;;;;;;12.18;100.00;102325.31;5094171;28;20032;-62
2023/10/06 04:00:40;;;;;;;9.65;4.65;;;;;;;12.15;100.00;102328.75;5094094;28;20059;-62
2023/10/06 04:03:09;;;;;;;11.80;5.00;;;;;;;12.11;100.00;102320.69;5094373;28;20040;-61
2023/10/06 04:05:37;;;;;;;9.98;5.20;;;;;;;12.10;100.00;102314.50;5092419;28;20061;-62
2023/10/06 04:08:15;;;;;;;10.35;4.32;;;;;;;12.13;100.00;102325.19;5092664;28;20032;-62
2023/10/06 04:10:42;;;;;;;10.52;4.75;;;;;;;12.18;100.00;102318.25;5093934;28;20032;-61
2023/10/06 04:13:10;;;;;;;9.02;4.72;;;;;;;12.23;100.00;102313.97;5093612;28;20508;-62
2023/10/06 04:15:43;;;;;;;9.32;4.45;;;;;;;12.25;100.00;102312.28;5093582;28;20020;-62
2023/10/06 04:18:10;;;;;;;16.17;4.45;;;;;;;12.30;99.73;102317.72;5093658;28;20116;-62
2023/10/06 04:20:38;;;;;;;8.60;4.32;;;;;;;12.30;99.73;102316.81;5093765;28;20021;-62
2023/10/06 04:23:04;;;;;;;9.20;4.60;;;;;;;12.29;99.46;102323.88;5093461;28;20016;-62
2023/10/06 04:25:31;;;;;;;11.48;4.47;;;;;;;12.31;99.69;102324.78;5093780;28;20032;-61
2023/10/06 04:27:57;;;;;;;12.05;4.70;;;;;;;12.32;99.33;102333.63;5093627;28;20039;-61
2023/10/06 04:30:25;;;;;;;11.90;4.40;;;;;;;12.31;99.49;102337.16;5092068;28;20016;-62
2023/10/06 04:32:51;;;;;;;10.57;4.50;;;;;;;12.26;99.26;102335.28;5093582;28;20055;-61
2023/10/06 04:35:21;;;;;;;9.32;4.40;;;;;;;12.23;99.54;102328.97;5093458;28;20456;-61
2023/10/06 04:37:47;;;;;;;7.00;4.32;;;;;;;12.21;99.26;102336.00;5093839;28;20038;-62
2023/10/06 04:40:21;;;;;;;10.38;4.60;;;;;;;12.17;99.37;102332.38;5093262;28;20042;-63
2023/10/06 04:42:46;;;;;;;12.15;4.38;;;;;;;12.17;99.16;102321.78;5093158;28;20040;-61
2023/10/06 04:45:15;;;;;;;6.60;4.30;;;;;;;12.21;99.01;102317.47;5092970;28;20052;-61
2023/10/06 04:47:41;;;;;;;12.23;4.30;;;;;;;12.16;99.26;102309.38;5092928;28;20024;-61
2023/10/06 04:50:10;;;;;;;9.57;4.38;;;;;;;12.13;99.26;102306.63;5093190;28;20042;-60
2023/10/06 04:52:36;;;;;;;11.98;4.32;;;;;;;12.12;99.58;102311.88;5093335;28;20028;-61
2023/10/06 04:55:10;;;;;;;8.82;4.32;;;;;;;12.13;99.59;102308.41;5093143;28;20032;-61
2023/10/06 04:57:35;;;;;;;10.73;4.07;;;;;;;12.10;99.23;102319.78;5092191;28;20032;-61
2023/10/06 05:00:01;;;;;;;11.13;4.60;;;;;;;12.05;99.46;102317.88;5093661;28;20036;-61
2023/10/06 05:02:26;;;;;;;12.13;4.55;;;;;;;12.04;99.74;102322.28;5096003;28;20025;-60
2023/10/06 05:04:52;;;;;;;9.50;4.20;;;;;;;11.97;99.71;102313.25;5097333;28;20102;-62
2023/10/06 05:07:17;;;;;;;15.23;4.68;;;;;;;11.96;100.00;102315.88;5097465;28;20071;-62
2023/10/06 05:09:43;;;;;;;11.98;4.63;;;;;;;11.98;99.80;102312.38;5097002;28;20032;-63
2023/10/06 05:12:11;;;;;;;12.02;3.97;;;;;;;11.97;99.81;102309.72;5097307;28;20063;-62
2023/10/06 05:14:37;;;;;;;13.68;4.70;;;;;;;11.97;99.90;102302.66;5097084;28;20059;-62
2023/10/06 05:17:03;;;;;;;10.45;4.32;;;;;;;12.00;99.60;102308.03;5096892;28;20028;-62
2023/10/06 05:19:28;;;;;;;10.43;4.20;;;;;;;12.04;99.16;102298.44;5095543;28;20071;-60
2023/10/06 05:21:53;;;;;;;10.68;4.25;;;;;;;12.08;99.07;102304.72;5095623;28;20024;-62
2023/10/06 05:24:19;;;;;;;8.45;4.38;;;;;;;12.11;98.69;102299.50;5096829;28;20111;-61
2023/10/06 05:26:44;;;;;;;11.68;4.05;;;;;;;12.15;98.27;102296.06;5097066;28;20043;-62
2023/10/06 05:29:14;;;;;;;11.30;4.20;;;;;;;12.18;98.10;102302.34;5096636;28;20024;-62
2023/10/06 05:31:42;;;;;;;10.23;4.20;;;;;;;12.23;97.67;102295.44;5096621;28;20114;-61
2023/10/06 05:34:08;;;;;;;8.57;4.25;;;;;;;12.26;97.38;102302.56;5096442;28;20066;-62
2023/10/06 05:36:35;;;;;;;11.57;4.13;;;;;;;12.28;97.01;102308.78;5096216;28;20032;-62
2023/10/06 05:39:01;;;;;;;9.90;4.45;;;;;;;12.28;96.87;102306.16;5095925;28;20040;-62
2023/10/06 05:41:33;;;;;;;9.55;4.03;;;;;;;12.28;96.87;102311.44;5096166;28;20032;-61
2023/10/06 05:43:58;;;;;;;8.95;3.92;;;;;;;12.27;96.79;102310.56;5094323;28;20043;-61
2023/10/06 05:46:25;;;;;;;10.30;4.10;;;;;;;12.26;96.73;102308.78;5095988;28;20048;-64
2023/10/06 05:48:53;;;;;;;9.23;4.13;;;;;;;12.24;96.52;102299.84;5095718;28;20393;-62
2023/10/06 05:51:21;;;;;;;11.30;3.97;;;;;;;12.22;96.59;102309.53;5096110;28;20077;-61
2023/10/06 05:53:48;;;;;;;12.05;4.30;;;;;;;12.23;96.25;102311.31;5095470;28;20086;-61
2023/10/06 05:56:15;;;;;;;10.30;4.40;;;;;;;12.23;96.28;102315.72;5095711;28;20130;-62
2023/10/06 05:58:43;;;;;;;13.13;4.30;;;;;;;12.19;96.56;102312.09;5095716;28;20112;-62
2023/10/06 06:01:13;;;;;;;13.18;4.78;;;;;;;12.19;96.75;102305.91;5095801;28;20481;-62
2023/10/06 06:03:44;;;;;;;12.73;4.75;;;;;;;12.21;96.80;102301.56;5094699;28;20078;-60
2023/10/06 06:06:10;;;;;;;7.85;4.10;;;;;;;12.25;96.38;102300.78;5095882;28;20036;-60
2023/10/06 06:08:39;;;;;;;14.73;4.60;;;;;;;12.29;96.74;102305.31;5095351;28;20024;-62
2023/10/06 06:11:05;;;;;;;13.45;4.47;;;;;;;12.31;96.59;102310.66;5095376;28;20024;-60
2023/10/06 06:13:33;;;;;;;9.35;4.38;;;;;;;12.30;96.50;102303.56;5095721;28;20097;-60
2023/10/06 06:15:59;;;;;;;12.05;4.22;;;;;;;12.33;96.57;102309.81;5095484;28;20078;-63
2023/10/06 06:18:27;;;;;;;14.45;4.30;;;;;;;12.34;96.62;102319.59;5095598;28;20024;-63
2023/10/06 06:20:53;;;;;;;14.85;4.82;;;;;;;12.37;96.39;102319.66;5095129;28;20028;-63
2023/10/06 06:23:20;;;;;;;15.23;4.72;;;;;;;12.41;96.38;102321.53;5095530;28;20039;-61
2023/10/06 06:25:45;;;;;;;15.90;4.60;;;;;;;12.43;96.15;102319.81;5095090;28;20028;-62
2023/10/06 06:28:14;;;;;;;14.18;4.90;;;;;;;12.45;95.62;102319.84;5095222;28;20032;-63
2023/10/06 06:30:40;;;;;;;11.30;4.55;;;;;;;12.47;95.75;102320.81;5095019;28;20078;-62
2023/10/06 06:33:17;;;;;;;11.63;4.65;;;;;;;12.50;95.83;102326.16;5095369;28;20019;-60
2023/10/06 06:35:43;;;;;;;11.85;4.32;;;;;;;12.53;95.49;102321.84;5094870;28;20036;-62
2023/10/06 06:38:12;;;;;;;11.63;4.47;;;;;;;12.58;95.48;102318.44;5094843;28;20035;-60
2023/10/06 06:40:38;;;;;;;8.40;4.18;;;;;;;12.62;95.37;102323.84;5094593;28;20515;-62
2023/10/06 06:43:09;;;;;;;10.75;4.35;;;;;;;12.70;94.95;102321.41;5094812;28;20510;-64
2023/10/06 06:45:41;;;;;;;12.40;4.65;;;;;;;12.77;94.44;102318.94;5094580;28;20052;-62
2023/10/06 06:48:13;;;;;;;16.70;4.67;;;;;;;12.78;94.20;102326.03;5094716;28;20044;-62
2023/10/06 06:50:42;;;;;;;11.80;4.68;;;;;;;12.79;94.25;102322.53;5094642;28;20270;-62
2023/10/06 06:53:08;;;;;;;14.50;4.65;;;;;;;12.77;93.99;102324.25;5094544;28;20067;-61
2023/10/06 06:55:34;;;;;;;10.32;4.50;;;;;;;12.80;94.45;102323.41;5094654;28;20052;-62
2023/10/06 06:58:05;;;;;;;10.60;4.60;;;;;;;12.81;93.95;102314.63;5094602;28;20032;-61
2023/10/06 07:00:30;;;;;;;13.27;4.60;;;;;;;12.83;94.17;102314.66;5094743;28;20334;-61
2023/10/06 07:02:56;;;;;;;12.77;4.60;;;;;;;12.88;94.04;102326.28;5094295;28;20375;-61
2023/10/06 07:05:23;;;;;;;13.68;5.18;;;;;;;12.88;94.02;102326.28;5094217;28;20031;-62
2023/10/06 07:07:52;;;;;;;12.35;4.90;;;;;;;12.88;94.02;102318.31;5094504;28;20039;-61
2023/10/06 07:10:20;;;;;;;12.23;4.50;;;;;;;12.97;93.80;102326.50;5094176;28;20020;-61
2023/10/06 07:12:47;;;;;;;10.90;4.45;;;;;;;13.00;93.42;102319.50;5094165;28;20016;-61
2023/10/06 07:15:16;;;;;;;10.57;4.60;;;;;;;13.08;93.37;102321.47;5094231;28;20038;-62
2023/10/06 07:17:45;;;;;;;10.75;4.57;;;;;;;13.10;93.19;102325.94;5093850;28;20028;-61
2023/10/06 07:20:16;;;;;;;11.52;4.60;;;;;;;13.08;92.98;102327.66;5094090;28;20032;-62
2023/10/06 07:22:42;;;;;;;13.48;4.25;;;;;;;13.12;93.06;102320.69;5093577;28;20469;-62
2023/10/06 07:25:10;;;;;;;14.70;4.78;;;;;;;13.19;92.37;102325.25;5093705;28;20032;-60
2023/10/06 07:27:37;;;;;;;12.25;4.57;;;;;;;13.32;92.67;102324.75;5093902;28;20086;-60
2023/10/06 07:30:04;;;;;;;11.35;4.43;;;;;;;13.55;92.25;102333.22;5093729;28;20069;-61
2023/10/06 07:32:30;;;;;;;14.75;4.80;;;;;;;13.69;90.64;102333.50;5094091;28;20036;-62
2023/10/06 07:34:55;;;;;;;11.85;4.90;;;;;;;13.78;90.75;102325.75;5093775;28;20028;-62
2023/10/06 07:37:21;;;;;;;10.88;4.18;;;;;;;13.92;89.69;102326.94;5093762;28;20458;-62
2023/10/06 07:39:47;;;;;;;12.00;4.15;;;;;;;14.11;89.14;102327.31;5093711;28;20078;-61
2023/10/06 07:42:16;;;;;;;10.77;4.18;;;;;;;14.30;88.66;102329.44;5093735;28;20051;-61
2023/10/06 07:44:42;;;;;;;12.82;4.43;;;;;;;14.47;87.27;102333.34;5093457;28;20056;-62
2023/10/06 07:47:08;;;;;;;12.13;4.45;;;;;;;14.66;86.46;102323.94;5093732;28;20410;-63
2023/10/06 07:49:34;;;;;;;10.98;4.22;;;;;;;14.87;86.46;102335.84;5093404;28;20023;-63
2023/10/06 07:52:00;;;;;;;11.18;4.30;;;;;;;15.01;84.95;102342.28;5093577;28;20054;-61
2023/10/06 07:54:26;;;;;;;10.65;4.35;;;;;;;15.16;84.24;102347.88;5093471;28;20090;-61
2023/10/06 07:56:52;;;;;;;13.63;4.18;;;;;;;15.40;84.01;102350.00;5093399;28;20016;-62
2023/10/06 07:59:17;;;;;;;12.32;4.20;;;;;;;15.55;82.96;102354.69;5093379;28;20028;-63
2023/10/06 08:01:43;;;;;;;15.68;4.60;;;;;;;15.70;81.79;102359.34;5093131;28;20115;-61
2023/10/06 08:04:08;;;;;;;11.02;4.13;;;;;;;15.80;81.18;102373.69;5093454;28;20028;-61
2023/10/06 08:06:34;;;;;;;11.23;4.38;;;;;;;15.75;80.87;102355.84;5087711;28;20100;-62
2023/10/06 08:09:00;;;;;;;11.60;4.30;;;;;;;15.93;80.56;102354.31;5089772;28;20530;-61
2023/10/06 08:11:25;;;;;;;9.15;4.22;;;;;;;16.12;80.23;102356.34;5091645;28;20024;-62
2023/10/06 08:13:52;;;;;;;9.40;4.25;;;;;;;16.36;79.96;102347.75;5093003;28;20035;-61
2023/10/06 08:16:18;;;;;;;8.48;3.88;;;;;;;16.50;78.37;102342.53;5092941;28;20055;-62
2023/10/06 08:18:45;;;;;;;12.73;4.40;;;;;;;16.60;78.71;102343.53;5093040;28;20474;-62
2023/10/06 08:21:11;;;;;;;11.13;4.30;;;;;;;16.85;77.42;102340.22;5092727;28;20028;-62
2023/10/06 08:23:36;;;;;;;12.80;4.28;;;;;;;17.20;77.28;102345.84;5092616;28;20355;-63
2023/10/06 08:26:07;;;;;;;10.90;4.35;;;;;;;17.46;75.76;102342.47;5092764;28;20093;-63
2023/10/06 08:28:33;;;;;;;8.93;3.80;;;;;;;17.69;75.11;102346.19;5092587;28;20648;-64
2023/10/06 08:31:00;;;;;;;10.38;4.28;;;;;;;18.11;74.06;102349.06;5092075;28;20083;-64
2023/10/06 08:33:27;;;;;;;11.70;4.10;;;;;;;18.25;73.94;102342.88;5092704;28;20050;-63
2023/10/06 08:36:00;;;;;;;8.88;3.90;;;;;;;18.37;72.94;102338.44;5091792;28;20115;-64
2023/10/06 08:38:26;;;;;;;9.68;3.88;;;;;;;18.58;72.26;102343.81;5091823;28;20032;-63
2023/10/06 08:40:56;;;;;;;11.35;4.00;;;;;;;18.66;71.03;102335.81;5091933;28;20459;-63
2023/10/06 08:43:28;;;;;;;11.70;4.13;;;;;;;18.43;72.07;102344.69;5077493;28;20033;-63
2023/10/06 08:45:59;;;;;;;13.85;3.53;;;;;;;18.38;71.68;102335.78;5072266;28;20055;-63
2023/10/06 08:48:31;;;;;;;11.65;4.13;;;;;;;18.46;72.17;102335.81;5081217;28;20070;-63
2023/10/06 08:50:59;;;;;;;9.25;3.90;;;;;;;18.43;72.40;102342.03;5113272;28;20023;-63
2023/10/06 08:53:26;;;;;;;9.55;4.00;;;;;;;18.52;72.13;102338.47;5111663;28;20432;-61
2023/10/06 08:55:52;;;;;;;9.32;3.80;;;;;;;18.69;72.08;102333.13;5111614;28;20388;-62
2023/10/06 08:58:17;;;;;;;12.93;4.25;;;;;;;18.82;71.32;102344.78;5112968;28;20024;-63
2023/10/06 09:00:43;;;;;;;12.88;4.25;;;;;;;18.67;71.82;102353.66;5112814;28;20024;-64
2023/10/06 09:03:11;;;;;;;10.65;3.88;;;;;;;18.64;71.72;102348.31;5113197;28;20027;-62
2023/10/06 09:05:43;;;;;;;8.52;3.88;;;;;;;18.58;72.02;102346.50;5113002;28;20114;-63
2023/10/06 09:08:11;;;;;;;12.70;4.10;;;;;;;18.53;72.40;102349.16;5112929;28;20084;-63
2023/10/06 09:10:42;;;;;;;11.32;3.97;;;;;;;18.64;72.70;102351.00;5112845;28;20526;-63
2023/10/06 09:13:11;;;;;;;10.95;4.10;;;;;;;18.83;71.66;102359.97;5112896;28;20035;-62
2023/10/06 09:15:39;;;;;;;14.07;4.65;;;;;;;18.92;71.39;102359.97;5112970;28;20024;-64
2023/10/06 09:18:34;;;;;;;7.88;3.70;;;;;;;19.04;71.41;102353.72;5112602;28;20101;-63
2023/10/06 09:21:19;;;;;;;12.85;4.40;;;;;;;19.20;71.03;102345.69;5112708;28;20050;-63
2023/10/06 09:23:45;;;;;;;13.07;4.50;;;;;;;19.13;70.45;102356.41;5113041;28;20028;-63
2023/10/06 09:26:25;;;;;;;13.27;4.30;;;;;;;18.98;71.06;102341.22;5112522;28;20377;-63
2023/10/06 09:28:55;;;;;;;12.05;4.25;;;;;;;18.87;71.78;102327.81;5112784;28;20024;-63
2023/10/06 09:31:47;;;;;;;12.52;4.97;;;;;;;19.16;71.92;102326.94;5112755;28;20039;-62
2023/10/06 09:34:23;;;;;;;13.68;4.38;;;;;;;19.41;70.09;102330.47;5108695;28;20043;-61
2023/10/06 09:36:50;;;;;;;12.25;4.28;;;;;;;19.70;70.10;102333.09;5112421;28;20032;-63
2023/10/06 09:39:37;;;;;;;13.57;4.35;;;;;;;19.76;69.48;102327.72;5112591;28;20423;-62
2023/10/06 09:42:05;;;;;;;12.90;4.30;;;;;;;19.68;68.60;102324.16;5112672;28;20034;-63
2023/10/06 09:44:31;;;;;;;13.18;4.30;;;;;;;19.83;68.36;102329.47;5112408;28;20097;-63
2023/10/06 09:47:00;;;;;;;12.80;4.00;;;;;;;19.82;67.81;102319.63;5114313;28;20023;-63
2023/10/06 09:49:28;;;;;;;11.23;4.38;;;;;;;19.92;68.43;102321.38;5116058;28;20057;-63
2023/10/06 09:51:59;;;;;;;12.30;4.43;;;;;;;20.00;68.28;102318.69;5116204;28;20096;-64
2023/10/06 09:54:25;;;;;;;14.10;4.50;;;;;;;19.79;68.45;102324.13;5116226;28;20365;-63
2023/10/06 09:56:54;;;;;;;10.02;4.20;;;;;;;19.70;68.54;102320.59;5116162;27;20027;-63
2023/10/06 09:59:22;;;;;;;12.70;4.20;;;;;;;19.69;69.55;102318.78;5116348;28;20045;-62
2023/10/06 10:01:48;;;;;;;13.48;4.50;;;;;;;19.67;68.97;102322.38;5116347;28;20496;-63
2023/10/06 10:04:14;;;;;;;11.52;4.40;;;;;;;19.69;69.12;102315.22;5114608;28;20495;-63
2023/10/06 10:06:44;;;;;;;8.68;3.80;;;;;;;19.89;68.47;102309.78;5115977;28;20036;-63
2023/10/06 10:09:15;;;;;;;11.70;4.45;;;;;;;19.93;67.94;102312.44;5115839;28;20119;-63
2023/10/06 10:11:44;;;;;;;10.93;4.30;;;;;;;19.97;68.03;102303.47;5116224;28;20027;-62
2023/10/06 10:14:32;;;;;;;11.25;4.22;;;;;;;20.09;68.75;102313.25;5115915;28;20023;-62
2023/10/06 10:17:21;;;;;;;10.82;4.10;;;;;;;20.34;68.12;102292.53;5114402;28;20093;-64
2023/10/06 10:19:47;;;;;;;13.05;4.22;;;;;;;20.32;67.16;102297.00;5115461;28;20023;-62
2023/10/06 10:22:16;;;;;;;10.45;3.58;;;;;;;20.37;66.49;102307.72;5115907;28;20073;-63
2023/10/06 10:24:43;;;;;;;14.50;4.00;;;;;;;20.36;66.84;102303.25;5115565;28;20024;-63
2023/10/06 10:27:13;;;;;;;9.13;3.65;;;;;;;20.43;67.16;102297.84;5115677;28;20030;-63
2023/10/06 10:29:40;;;;;;;13.55;3.92;;;;;;;20.67;66.84;102299.47;5115448;28;20084;-63
2023/10/06 10:32:23;;;;;;;10.55;4.10;;;;;;;20.74;66.35;102311.97;5115660;28;20449;-62
2023/10/06 10:35:14;;;;;;;14.02;4.03;;;;;;;20.70;66.67;102303.94;5115516;28;20027;-62
2023/10/06 10:38:02;;;;;;;9.43;3.70;;;;;;;20.71;66.59;102306.59;5115579;27;20038;-63
2023/10/06 10:40:48;;;;;;;17.27;4.30;;;;;;;20.79;66.96;102300.28;5115491;28;20028;-63
2023/10/06 10:43:14;;;;;;;8.18;3.83;;;;;;;20.91;65.67;102308.25;5115279;28;20027;-63
2023/10/06 10:45:44;;;;;;;8.73;3.63;;;;;;;20.90;64.36;102298.41;5113761;28;20051;-63
2023/10/06 10:48:14;;;;;;;11.48;4.03;;;;;;;20.84;65.01;102295.75;5114968;28;20039;-63
2023/10/06 10:51:12;;;;;;;11.75;4.35;;;;;;;20.64;65.52;102286.09;5115327;28;20093;-63
2023/10/06 10:53:49;;;;;;;11.48;4.03;;;;;;;20.62;66.03;102290.56;5115453;28;20083;-63
2023/10/06 10:56:43;;;;;;;11.35;4.15;;;;;;;20.50;65.95;102293.34;5114924;28;20340;-62
2023/10/06 10:59:09;;;;;;;13.65;4.20;;;;;;;20.40;65.81;102289.78;5111379;28;20066;-64
2023/10/06 11:01:38;;;;;;;9.80;4.00;;;;;;;20.48;66.71;102287.09;5114757;28;20065;-64
2023/10/06 11:04:09;;;;;;;10.98;3.65;;;;;;;20.82;65.17;102289.53;5115093;28;20108;-64
2023/10/06 11:06:42;;;;;;;15.75;4.50;;;;;;;20.94;64.01;102292.06;5114653;28;20091;-64
2023/10/06 11:09:12;;;;;;;10.60;3.90;;;;;;;20.85;64.70;102294.84;5114625;28;20039;-63
2023/10/06 11:11:41;;;;;;;10.82;3.90;;;;;;;20.93;64.99;102292.97;5114919;28;20027;-62
2023/10/06 11:14:07;;;;;;;8.63;4.03;;;;;;;20.94;63.53;102295.69;5114448;28;20485;-63
2023/10/06 11:16:35;;;;;;;11.13;4.00;;;;;;;20.81;64.16;102306.53;5108070;28;20024;-63
2023/10/06 11:19:03;;;;;;;10.85;4.10;;;;;;;20.78;65.05;102293.13;5102447;28;20028;-63
2023/10/06 11:21:30;;;;;;;12.65;4.40;;;;;;;20.78;64.60;102302.06;5104289;28;20024;-63
2023/10/06 11:23:56;;;;;;;11.65;4.22;;;;;;;20.82;64.46;102290.41;5103920;28;20028;-62
2023/10/06 11:26:29;;;;;;;12.25;4.07;;;;;;;20.84;65.25;102283.19;5105255;28;20027;-63
2023/10/06 11:28:55;;;;;;;11.57;4.38;;;;;;;20.95;64.45;102289.38;5093725;28;20432;-63
2023/10/06 11:31:23;;;;;;;12.18;4.20;;;;;;;20.99;64.89;102296.50;5101734;28;20027;-64
2023/10/06 11:33:49;;;;;;;13.80;4.53;;;;;;;20.98;64.12;102286.69;5097879;28;20036;-64